createdAt,value
2022-10-03T00:00:36.234Z,73.30
2022-10-03T00:02:43.861Z,73.50
2022-10-03T00:04:51.651Z,73.50
2022-10-03T00:06:56.314Z,73.50
2022-10-03T00:08:57.954Z,73.60
2022-10-03T00:11:00.056Z,73.50
2022-10-03T00:13:10.846Z,73.70
2022-10-03T00:15:25.694Z,73.70
2022-10-03T00:17:30.141Z,73.70
2022-10-03T00:19:38.199Z,73.60
2022-10-03T00:22:01.403Z,73.60
2022-10-03T00:24:08.915Z,73.60
2022-10-03T00:26:27.581Z,73.90
2022-10-03T00:28:55.076Z,73.90
2022-10-03T00:31:04.034Z,73.80
2022-10-03T00:33:08.473Z,73.90
2022-10-03T00:35:20.067Z,74.70
2022-10-03T00:37:21.620Z,73.90
2022-10-03T00:39:23.186Z,73.90
2022-10-03T00:41:24.847Z,73.70
2022-10-03T00:43:44.643Z,73.60
2022-10-03T00:45:55.586Z,73.60
2022-10-03T00:48:30.667Z,73.70
2022-10-03T00:50:44.444Z,73.70
2022-10-03T00:53:05.870Z,73.90
2022-10-03T00:55:26.290Z,73.90
2022-10-03T00:57:30.967Z,73.80
2022-10-03T00:59:40.214Z,73.90
2022-10-03T01:01:46.585Z,73.90
2022-10-03T01:04:06.954Z,73.90
2022-10-03T01:06:29.221Z,73.90
2022-10-03T01:08:43.158Z,73.80
2022-10-03T01:11:01.112Z,73.70
2022-10-03T01:13:05.825Z,73.70
2022-10-03T01:15:26.406Z,73.60
2022-10-03T01:17:31.653Z,73.50
2022-10-03T01:19:51.101Z,73.50
2022-10-03T01:22:22.354Z,73.40
2022-10-03T01:24:26.661Z,73.30
2022-10-03T01:26:51.136Z,73.20
2022-10-03T01:29:23.920Z,73.20
2022-10-03T01:31:32.918Z,73.10
2022-10-03T01:33:35.030Z,73.10
2022-10-03T01:35:42.951Z,73.00
2022-10-03T01:37:52.540Z,73.00
2022-10-03T01:40:08.863Z,73.10
2022-10-03T01:42:14.281Z,73.00
2022-10-03T01:44:37.931Z,72.90
2022-10-03T01:46:42.337Z,72.90
2022-10-03T01:48:53.353Z,72.90
2022-10-03T01:51:13.906Z,72.90
2022-10-03T01:53:27.681Z,72.80
2022-10-03T01:55:39.138Z,72.90
2022-10-03T01:57:46.550Z,72.80
2022-10-03T01:59:55.543Z,72.80
2022-10-03T02:02:17.862Z,72.80
2022-10-03T02:04:36.129Z,72.90
2022-10-03T02:06:43.703Z,73.00
2022-10-03T02:08:54.009Z,72.90
2022-10-03T02:11:01.688Z,72.80
2022-10-03T02:13:12.383Z,72.90
2022-10-03T02:15:31.744Z,73.00
2022-10-03T02:17:45.424Z,73.00
2022-10-03T02:19:56.170Z,73.00
2022-10-03T02:21:58.891Z,73.00
2022-10-03T02:24:08.153Z,73.10
2022-10-03T02:26:28.385Z,73.20
2022-10-03T02:28:45.428Z,73.20
2022-10-03T02:31:10.561Z,73.20
2022-10-03T02:33:25.045Z,73.20
2022-10-03T02:35:45.398Z,73.20
2022-10-03T02:38:05.851Z,73.20
2022-10-03T02:40:26.363Z,73.50
2022-10-03T02:42:40.181Z,73.20
2022-10-03T02:45:01.050Z,73.30
2022-10-03T02:47:08.816Z,73.40
2022-10-03T02:49:10.407Z,73.40
2022-10-03T02:51:25.330Z,73.50
2022-10-03T02:53:42.443Z,73.40
2022-10-03T02:56:06.204Z,73.50
2022-10-03T02:58:26.972Z,73.40
2022-10-03T03:00:39.752Z,73.40
2022-10-03T03:03:01.248Z,73.50
2022-10-03T03:05:21.483Z,73.60
2022-10-03T03:07:38.911Z,73.60
2022-10-03T03:09:57.895Z,73.60
2022-10-03T03:12:18.384Z,73.70
2022-10-03T03:14:31.600Z,73.60
2022-10-03T03:16:44.150Z,73.60
2022-10-03T03:18:55.108Z,73.50
2022-10-03T03:21:03.756Z,73.50
2022-10-03T03:23:05.308Z,73.50
2022-10-03T03:25:10.156Z,73.50
2022-10-03T03:27:22.053Z,73.60
2022-10-03T03:29:26.506Z,73.70
2022-10-03T03:31:41.896Z,73.60
2022-10-03T03:34:07.508Z,73.70
2022-10-03T03:36:29.409Z,73.80
2022-10-03T03:38:53.779Z,73.80
2022-10-03T03:40:56.415Z,73.80
2022-10-03T03:43:16.630Z,73.80
2022-10-03T03:45:30.882Z,73.90
2022-10-03T03:47:43.134Z,73.80
2022-10-03T03:50:07.134Z,73.80
2022-10-03T03:52:18.077Z,73.90
2022-10-03T03:54:38.760Z,73.90
2022-10-03T03:56:43.405Z,73.80
2022-10-03T03:59:03.782Z,73.80
2022-10-03T04:01:05.393Z,73.80
2022-10-03T04:03:07.005Z,73.70
2022-10-03T04:05:12.504Z,73.70
2022-10-03T04:07:33.452Z,73.80
2022-10-03T04:09:42.043Z,73.80
2022-10-03T04:11:49.912Z,73.80
2022-10-03T04:13:57.332Z,73.70
2022-10-03T04:16:01.942Z,74.50
2022-10-03T04:18:31.654Z,73.70
2022-10-03T04:20:45.052Z,73.60
2022-10-03T04:23:00.381Z,73.70
2022-10-03T04:25:15.903Z,73.70
2022-10-03T04:27:37.985Z,73.70
2022-10-03T04:29:40.367Z,73.70
2022-10-03T04:31:57.836Z,73.70
2022-10-03T04:33:59.410Z,73.70
2022-10-03T04:36:00.976Z,73.70
2022-10-03T04:38:13.642Z,73.70
2022-10-03T04:40:21.337Z,73.70
2022-10-03T04:42:27.024Z,73.70
2022-10-03T04:44:31.773Z,73.60
2022-10-03T04:46:39.770Z,73.70
2022-10-03T04:49:01.975Z,73.70
2022-10-03T04:51:08.430Z,73.70
2022-10-03T04:53:27.729Z,73.60
2022-10-03T04:55:49.380Z,73.50
2022-10-03T04:58:07.137Z,73.60
2022-10-03T05:00:14.776Z,73.60
2022-10-03T05:02:24.349Z,73.30
2022-10-03T05:04:29.774Z,73.30
2022-10-03T05:06:50.301Z,73.10
2022-10-03T05:08:51.877Z,73.10
2022-10-03T05:11:05.766Z,73.20
2022-10-03T05:13:19.835Z,73.20
2022-10-03T05:15:24.028Z,73.10
2022-10-03T05:17:45.869Z,73.10
2022-10-03T05:20:06.298Z,73.00
2022-10-03T05:22:17.826Z,72.90
2022-10-03T05:24:22.366Z,72.80
2022-10-03T05:26:45.404Z,72.80
2022-10-03T05:28:54.191Z,72.80
2022-10-03T05:31:07.542Z,72.80
2022-10-03T05:33:19.449Z,73.00
2022-10-03T05:35:31.730Z,73.10
2022-10-03T05:37:52.023Z,73.10
2022-10-03T05:39:53.576Z,73.10
2022-10-03T05:42:21.630Z,73.10
2022-10-03T05:44:30.730Z,73.10
2022-10-03T05:46:35.395Z,73.10
2022-10-03T05:48:48.614Z,73.10
2022-10-03T05:50:58.028Z,73.10
2022-10-03T05:53:19.306Z,73.10
2022-10-03T05:55:23.753Z,73.10
2022-10-03T05:57:52.897Z,73.40
2022-10-03T06:00:14.867Z,73.50
2022-10-03T06:02:16.506Z,73.40
2022-10-03T06:04:23.900Z,73.40
2022-10-03T06:06:43.835Z,73.50
2022-10-03T06:08:51.487Z,73.50
2022-10-03T06:10:59.862Z,73.40
2022-10-03T06:13:01.458Z,73.20
2022-10-03T06:15:21.618Z,73.20
2022-10-03T06:17:26.131Z,73.20
2022-10-03T06:19:33.631Z,73.20
2022-10-03T06:21:49.600Z,73.20
2022-10-03T06:23:58.441Z,73.30
2022-10-03T06:26:00.631Z,73.20
2022-10-03T06:28:21.245Z,73.10
2022-10-03T06:30:39.914Z,73.00
2022-10-03T06:32:58.418Z,73.10
2022-10-03T06:35:12.009Z,73.00
2022-10-03T06:37:32.258Z,73.10
2022-10-03T06:39:52.764Z,73.10
2022-10-03T06:42:00.913Z,73.20
2022-10-03T06:44:22.899Z,73.10
2022-10-03T06:46:27.379Z,74.10
2022-10-03T06:48:43.879Z,73.10
2022-10-03T06:50:53.459Z,73.00
2022-10-03T06:53:00.846Z,72.90
2022-10-03T06:55:21.371Z,72.90
2022-10-03T06:57:25.813Z,72.90
2022-10-03T06:59:49.773Z,73.00
2022-10-03T07:01:57.450Z,73.00
2022-10-03T07:04:20.145Z,73.00
2022-10-03T07:06:21.741Z,73.30
2022-10-03T07:08:42.097Z,73.40
2022-10-03T07:10:52.834Z,73.40
2022-10-03T07:12:57.664Z,74.40
2022-10-03T07:15:05.453Z,73.70
2022-10-03T07:17:25.787Z,73.70
2022-10-03T07:19:30.469Z,73.60
2022-10-03T07:21:50.979Z,73.60
2022-10-03T07:24:07.936Z,73.70
2022-10-03T07:26:12.569Z,73.70
2022-10-03T07:28:45.760Z,73.70
2022-10-03T07:31:05.903Z,73.60
2022-10-03T07:33:23.543Z,73.60
2022-10-03T07:35:53.920Z,73.60
2022-10-03T07:38:46.812Z,73.50
2022-10-03T07:40:51.229Z,73.40
2022-10-03T07:43:11.675Z,73.30
2022-10-03T07:45:19.545Z,73.20
2022-10-03T07:47:40.002Z,73.30
2022-10-03T07:49:44.743Z,73.30
2022-10-03T07:52:23.332Z,73.20
2022-10-03T07:54:34.017Z,73.40
2022-10-03T07:56:48.292Z,73.20
2022-10-03T07:59:02.522Z,73.20
2022-10-03T08:01:09.486Z,73.20
2022-10-03T08:03:46.868Z,73.20
2022-10-03T08:05:54.562Z,73.20
2022-10-03T08:08:14.968Z,73.20
2022-10-03T08:10:17.025Z,73.20
2022-10-03T08:12:42.110Z,73.30
2022-10-03T08:14:43.741Z,73.40
2022-10-03T08:16:45.671Z,73.40
2022-10-03T08:18:59.989Z,73.40
2022-10-03T08:21:03.049Z,73.40
2022-10-03T08:23:19.803Z,73.40
2022-10-03T08:25:40.344Z,73.50
2022-10-03T08:27:57.287Z,73.50
2022-10-03T08:30:08.039Z,73.30
2022-10-03T08:32:33.316Z,73.30
2022-10-03T08:34:44.218Z,73.30
2022-10-03T08:36:58.175Z,73.30
2022-10-03T08:39:19.232Z,73.20
2022-10-03T08:41:30.317Z,73.10
2022-10-03T08:43:34.825Z,73.10
2022-10-03T08:45:45.849Z,73.10
2022-10-03T08:48:08.716Z,73.10
2022-10-03T08:50:40.976Z,73.10
2022-10-03T08:52:43.449Z,73.10
2022-10-03T08:54:52.717Z,73.00
2022-10-03T08:57:07.388Z,72.90
2022-10-03T08:59:20.466Z,72.90
2022-10-03T09:01:22.119Z,73.10
2022-10-03T09:03:35.061Z,73.10
2022-10-03T09:05:51.968Z,72.70
2022-10-03T09:08:22.490Z,72.50
2022-10-03T09:10:33.135Z,72.40
2022-10-03T09:12:42.651Z,72.20
2022-10-03T09:14:50.758Z,72.20
2022-10-03T09:17:10.577Z,71.80
2022-10-03T09:19:31.013Z,71.80
2022-10-03T09:21:37.133Z,72.10
2022-10-03T09:23:51.649Z,72.30
2022-10-03T09:26:12.022Z,72.50
2022-10-03T09:28:25.465Z,72.60
2022-10-03T09:30:46.111Z,72.40
2022-10-03T09:33:12.162Z,72.30
2022-10-03T09:35:22.690Z,72.50
2022-10-03T09:37:29.079Z,72.70
2022-10-03T09:39:49.347Z,72.70
2022-10-03T09:42:00.364Z,72.50
2022-10-03T09:44:18.964Z,72.10
2022-10-03T09:46:32.655Z,72.00
2022-10-03T09:48:50.208Z,72.00
2022-10-03T09:51:04.003Z,72.20
2022-10-03T09:53:41.238Z,72.20
2022-10-03T09:55:42.927Z,72.20
2022-10-03T09:58:08.903Z,72.10
2022-10-03T10:00:19.762Z,72.20
2022-10-03T10:02:36.589Z,72.20
2022-10-03T10:04:54.886Z,71.60
2022-10-03T10:07:16.128Z,71.50
2022-10-03T10:09:17.747Z,71.50
2022-10-03T10:11:31.730Z,71.40
2022-10-03T10:14:10.469Z,71.20
2022-10-03T10:16:14.953Z,71.10
2022-10-03T10:18:28.268Z,71.00
2022-10-03T10:20:30.209Z,70.90
2022-10-03T10:23:02.895Z,70.90
2022-10-03T10:25:13.423Z,70.50
2022-10-03T10:27:33.939Z,70.20
2022-10-03T10:29:44.884Z,70.20
2022-10-03T10:31:46.721Z,70.50
2022-10-03T10:33:48.369Z,71.00
2022-10-03T10:36:09.035Z,71.20
2022-10-03T10:38:16.882Z,71.20
2022-10-03T10:40:37.023Z,71.70
2022-10-03T10:42:57.564Z,71.60
2022-10-03T10:45:17.457Z,71.40
2022-10-03T10:47:31.246Z,71.20
2022-10-03T10:49:39.865Z,71.00
2022-10-03T10:52:07.660Z,70.80
2022-10-03T10:54:21.469Z,70.50
2022-10-03T10:56:23.054Z,70.20
2022-10-03T10:58:24.743Z,69.80
2022-10-03T11:00:35.680Z,69.70
2022-10-03T11:02:46.365Z,69.80
2022-10-03T11:04:53.639Z,70.00
2022-10-03T11:07:08.495Z,70.20
2022-10-03T11:09:25.050Z,70.40
2022-10-03T11:11:45.267Z,70.40
2022-10-03T11:13:46.862Z,70.50
2022-10-03T11:15:57.405Z,70.80
2022-10-03T11:17:59.064Z,71.00
2022-10-03T11:20:13.163Z,71.00
2022-10-03T11:22:35.672Z,70.60
2022-10-03T11:24:56.111Z,70.50
2022-10-03T11:27:13.117Z,70.30
2022-10-03T11:29:33.830Z,70.10
2022-10-03T11:31:38.644Z,70.10
2022-10-03T11:33:46.106Z,69.60
2022-10-03T11:36:00.013Z,69.40
2022-10-03T11:38:21.090Z,69.30
2022-10-03T11:40:22.844Z,68.80
2022-10-03T11:42:33.449Z,68.70
2022-10-03T11:44:40.848Z,68.80
2022-10-03T11:47:01.375Z,68.80
2022-10-03T11:49:03.084Z,69.00
2022-10-03T11:51:19.773Z,69.10
2022-10-03T11:53:21.601Z,69.10
2022-10-03T11:55:35.571Z,69.30
2022-10-03T11:57:39.424Z,69.50
2022-10-03T11:59:54.456Z,69.70
2022-10-03T12:02:15.112Z,69.50
2022-10-03T12:04:30.684Z,69.60
2022-10-03T12:06:56.945Z,69.80
2022-10-03T12:09:01.398Z,69.70
2022-10-03T12:11:15.678Z,69.60
2022-10-03T12:13:22.359Z,69.70
2022-10-03T12:15:34.145Z,69.70
2022-10-03T12:17:37.044Z,69.90
2022-10-03T12:19:55.691Z,70.20
2022-10-03T12:22:00.604Z,70.20
2022-10-03T12:24:14.419Z,70.30
2022-10-03T12:26:18.224Z,70.20
2022-10-03T12:28:21.714Z,70.20
2022-10-03T12:30:23.884Z,69.70
2022-10-03T12:32:32.402Z,68.80
2022-10-03T12:34:41.973Z,69.00
2022-10-03T12:36:49.640Z,69.20
2022-10-03T12:39:10.119Z,69.00
2022-10-03T12:41:11.785Z,69.20
2022-10-03T12:43:39.823Z,69.00
2022-10-03T12:45:43.233Z,68.60
2022-10-03T12:47:55.351Z,68.60
2022-10-03T12:49:57.642Z,68.70
2022-10-03T12:52:01.905Z,68.60
2022-10-03T12:54:24.703Z,68.50
2022-10-03T12:56:54.359Z,68.50
2022-10-03T12:59:14.733Z,68.10
2022-10-03T13:01:25.315Z,68.40
2022-10-03T13:03:49.596Z,68.60
2022-10-03T13:05:57.713Z,68.60
2022-10-03T13:08:06.733Z,68.40
2022-10-03T13:10:14.675Z,68.50
2022-10-03T13:12:34.284Z,68.70
2022-10-03T13:14:40.128Z,68.50
2022-10-03T13:17:00.726Z,68.60
2022-10-03T13:19:06.735Z,68.70
2022-10-03T13:21:45.062Z,68.60
2022-10-03T13:23:50.146Z,68.10
2022-10-03T13:25:55.621Z,68.40
2022-10-03T13:28:18.582Z,68.40
2022-10-03T13:30:22.426Z,68.50
2022-10-03T13:32:37.797Z,68.60
2022-10-03T13:34:57.950Z,68.70
2022-10-03T13:37:09.692Z,68.80
2022-10-03T13:39:11.399Z,68.60
2022-10-03T13:41:31.911Z,68.70
2022-10-03T13:43:37.735Z,68.80
2022-10-03T13:45:42.353Z,68.90
2022-10-03T13:47:54.661Z,68.90
2022-10-03T13:49:56.748Z,69.00
2022-10-03T13:52:17.934Z,68.60
2022-10-03T13:54:43.779Z,68.70
2022-10-03T13:56:45.466Z,68.60
2022-10-03T13:58:56.530Z,68.70
2022-10-03T14:01:11.381Z,68.60
2022-10-03T14:03:13.733Z,68.60
2022-10-03T14:05:18.312Z,68.70
2022-10-03T14:07:41.627Z,68.70
2022-10-03T14:09:43.358Z,68.50
2022-10-03T14:11:45.018Z,68.60
2022-10-03T14:13:46.657Z,69.00
2022-10-03T14:15:51.213Z,68.80
2022-10-03T14:17:53.233Z,68.70
2022-10-03T14:20:02.868Z,68.40
2022-10-03T14:22:19.841Z,68.30
2022-10-03T14:24:37.024Z,68.50
2022-10-03T14:26:48.667Z,68.80
2022-10-03T14:29:03.003Z,68.70
2022-10-03T14:31:15.056Z,68.40
2022-10-03T14:33:40.060Z,68.50
2022-10-03T14:36:00.606Z,68.40
2022-10-03T14:38:14.190Z,68.20
2022-10-03T14:40:23.351Z,67.80
2022-10-03T14:42:52.175Z,67.30
2022-10-03T14:44:59.636Z,67.40
2022-10-03T14:47:03.107Z,67.10
2022-10-03T14:49:12.473Z,67.10
2022-10-03T14:51:28.058Z,66.70
2022-10-03T14:53:30.135Z,67.00
2022-10-03T14:55:46.174Z,67.00
2022-10-03T14:58:11.659Z,66.80
2022-10-03T15:00:24.075Z,66.60
2022-10-03T15:02:36.837Z,66.70
2022-10-03T15:04:41.765Z,66.70
2022-10-03T15:06:46.227Z,67.00
2022-10-03T15:08:50.885Z,67.10
2022-10-03T15:10:54.325Z,67.30
2022-10-03T15:12:58.417Z,67.20
2022-10-03T15:15:06.163Z,67.20
2022-10-03T15:17:19.820Z,67.30
2022-10-03T15:19:27.728Z,67.30
2022-10-03T15:21:29.992Z,67.10
2022-10-03T15:23:33.644Z,67.30
2022-10-03T15:25:37.642Z,67.50
2022-10-03T15:27:40.580Z,67.40
2022-10-03T15:29:42.435Z,67.50
2022-10-03T15:31:50.808Z,67.40
2022-10-03T15:33:53.265Z,67.50
2022-10-03T15:35:59.223Z,67.40
2022-10-03T15:38:12.775Z,67.70
2022-10-03T15:40:34.999Z,67.70
2022-10-03T15:42:45.180Z,67.60
2022-10-03T15:44:53.591Z,68.30
2022-10-03T15:47:01.524Z,67.60
2022-10-03T15:49:06.175Z,67.50
2022-10-03T15:51:14.663Z,67.70
2022-10-03T15:53:36.206Z,67.30
2022-10-03T15:55:44.941Z,67.10
2022-10-03T15:57:48.288Z,67.30
2022-10-03T15:59:51.594Z,67.40
2022-10-03T16:01:55.567Z,67.40
2022-10-03T16:03:59.541Z,67.30
2022-10-03T16:06:09.869Z,67.20
2022-10-03T16:08:17.698Z,67.20
2022-10-03T16:10:21.330Z,67.40
2022-10-03T16:12:25.726Z,67.40
2022-10-03T16:14:30.312Z,67.50
2022-10-03T16:16:36.828Z,67.50
2022-10-03T16:18:43.027Z,67.30
2022-10-03T16:20:52.750Z,67.30
2022-10-03T16:22:57.981Z,67.20
2022-10-03T16:25:18.174Z,67.30
2022-10-03T16:27:22.195Z,67.40
2022-10-03T16:29:33.315Z,67.50
2022-10-03T16:31:38.073Z,67.70
2022-10-03T16:33:46.936Z,67.70
2022-10-03T16:35:50.837Z,67.70
2022-10-03T16:37:52.815Z,67.70
2022-10-03T16:39:58.611Z,67.70
2022-10-03T16:42:02.110Z,67.70
2022-10-03T16:44:05.207Z,67.80
2022-10-03T16:46:17.938Z,67.80
2022-10-03T16:48:51.857Z,67.80
2022-10-03T16:50:54.017Z,67.80
2022-10-03T16:52:58.548Z,67.80
2022-10-03T16:55:05.694Z,67.70
2022-10-03T16:57:27.431Z,67.80
2022-10-03T16:59:30.386Z,67.80
2022-10-03T17:01:36.526Z,67.80
2022-10-03T17:03:44.067Z,67.80
2022-10-03T17:05:47.197Z,67.70
2022-10-03T17:07:51.341Z,67.60
2022-10-03T17:09:54.358Z,67.60
2022-10-03T17:11:58.007Z,67.40
2022-10-03T17:14:01.862Z,67.30
2022-10-03T17:16:06.250Z,67.40
2022-10-03T17:18:15.879Z,67.20
2022-10-03T17:20:33.442Z,67.10
2022-10-03T17:22:41.851Z,67.30
2022-10-03T17:24:56.691Z,67.30
2022-10-03T17:27:01.364Z,67.20
2022-10-03T17:29:18.459Z,67.20
2022-10-03T17:31:20.207Z,67.20
2022-10-03T17:33:33.163Z,67.20
2022-10-03T17:35:41.465Z,67.20
2022-10-03T17:37:43.087Z,67.10
2022-10-03T17:39:47.585Z,67.00
2022-10-03T17:41:54.552Z,67.00
2022-10-03T17:44:00.461Z,66.90
2022-10-03T17:46:05.338Z,66.90
2022-10-03T17:48:10.293Z,66.90
2022-10-03T17:50:24.114Z,66.90
2022-10-03T17:52:26.596Z,66.80
2022-10-03T17:54:35.944Z,66.80
2022-10-03T17:56:42.049Z,67.00
2022-10-03T17:58:45.514Z,66.80
2022-10-03T18:01:13.739Z,66.80
2022-10-03T18:03:27.271Z,67.00
2022-10-03T18:05:30.900Z,66.90
2022-10-03T18:07:33.298Z,67.00
2022-10-03T18:09:40.998Z,66.90
2022-10-03T18:11:43.314Z,66.90
2022-10-03T18:13:48.416Z,66.80
2022-10-03T18:15:59.360Z,66.90
2022-10-03T18:18:01.180Z,66.90
2022-10-03T18:20:18.359Z,67.00
2022-10-03T18:22:39.883Z,67.10
2022-10-03T18:25:02.180Z,67.10
2022-10-03T18:27:04.060Z,67.10
2022-10-03T18:29:17.786Z,67.10
2022-10-03T18:33:51.136Z,67.10
2022-10-03T18:35:53.174Z,67.10
2022-10-03T18:38:03.689Z,67.00
2022-10-03T18:40:06.277Z,67.20
2022-10-03T18:42:08.052Z,67.20
2022-10-03T18:44:14.178Z,67.20
2022-10-03T18:46:19.117Z,67.20
2022-10-03T18:48:31.262Z,67.30
2022-10-03T18:50:40.545Z,67.30
2022-10-03T18:52:58.803Z,67.30
2022-10-03T18:55:09.452Z,67.30
2022-10-03T18:57:25.670Z,67.30
2022-10-03T18:59:47.646Z,67.50
2022-10-03T19:01:55.686Z,67.50
2022-10-03T19:04:00.358Z,67.60
2022-10-03T19:06:08.141Z,67.50
2022-10-03T19:08:13.996Z,67.70
2022-10-03T19:10:26.027Z,67.70
2022-10-03T19:12:29.716Z,67.70
2022-10-03T19:14:31.404Z,67.80
2022-10-03T19:16:53.364Z,67.80
2022-10-03T19:19:13.966Z,67.90
2022-10-03T19:21:18.914Z,67.80
2022-10-03T19:23:27.309Z,67.90
2022-10-03T19:25:29.782Z,68.00
2022-10-03T19:27:49.840Z,67.80
2022-10-03T19:29:53.874Z,67.80
2022-10-03T19:31:55.603Z,67.80
2022-10-03T19:34:05.222Z,68.00
2022-10-03T19:36:07.845Z,68.80
2022-10-03T19:38:17.590Z,68.10
2022-10-03T19:40:42.419Z,68.10
2022-10-03T19:42:54.243Z,68.20
2022-10-03T19:44:57.320Z,68.10
2022-10-03T19:46:59.003Z,68.00
2022-10-03T19:49:00.644Z,68.10
2022-10-03T19:51:29.867Z,68.20
2022-10-03T19:53:32.822Z,68.30
2022-10-03T19:55:38.963Z,68.20
2022-10-03T19:57:42.272Z,68.20
2022-10-03T19:59:45.243Z,68.40
2022-10-03T20:01:48.222Z,68.50
2022-10-03T20:03:55.178Z,68.50
2022-10-03T20:06:00.633Z,68.50
2022-10-03T20:08:17.815Z,68.60
2022-10-03T20:10:36.185Z,68.60
2022-10-03T20:12:43.544Z,68.60
2022-10-03T20:14:50.411Z,68.70
2022-10-03T20:16:53.435Z,68.70
2022-10-03T20:18:58.334Z,68.70
2022-10-03T20:21:00.334Z,68.60
2022-10-03T20:23:03.501Z,68.70
2022-10-03T20:25:08.386Z,68.80
2022-10-03T20:27:13.178Z,68.80
2022-10-03T20:29:38.740Z,68.80
2022-10-03T20:31:43.912Z,68.90
2022-10-03T20:33:46.474Z,69.00
2022-10-03T20:36:07.234Z,68.90
2022-10-03T20:38:16.022Z,68.90
2022-10-03T20:40:17.852Z,69.00
2022-10-03T20:42:26.059Z,69.20
2022-10-03T20:44:30.844Z,69.20
2022-10-03T20:46:40.736Z,69.20
2022-10-03T20:48:52.068Z,69.10
2022-10-03T20:50:57.432Z,69.10
2022-10-03T20:53:01.072Z,69.00
2022-10-03T20:55:06.343Z,69.00
2022-10-03T20:57:16.900Z,68.90
2022-10-03T20:59:20.928Z,68.90
2022-10-03T21:01:24.125Z,69.00
2022-10-03T21:03:34.550Z,68.90
2022-10-03T21:05:38.385Z,69.00
2022-10-03T21:07:47.426Z,69.00
2022-10-03T21:09:51.255Z,69.10
2022-10-03T21:11:54.795Z,69.10
2022-10-03T21:14:18.705Z,69.20
2022-10-03T21:16:21.909Z,69.20
2022-10-03T21:18:23.597Z,69.20
2022-10-03T21:20:32.621Z,69.20
2022-10-03T21:22:34.876Z,69.30
2022-10-03T21:24:54.075Z,69.20
2022-10-03T21:26:58.415Z,69.50
2022-10-03T21:29:17.012Z,69.50
2022-10-03T21:31:24.384Z,69.60
2022-10-03T21:33:29.652Z,69.60
2022-10-03T21:35:31.364Z,69.50
2022-10-03T21:37:50.781Z,69.50
2022-10-03T21:40:01.533Z,69.50
2022-10-03T21:42:14.859Z,69.40
2022-10-03T21:44:35.451Z,69.50
2022-10-03T21:46:51.942Z,69.50
2022-10-03T21:48:59.874Z,69.50
2022-10-03T21:51:07.658Z,69.40
2022-10-03T21:53:19.426Z,69.30
2022-10-03T21:55:50.856Z,69.20
2022-10-03T21:58:07.684Z,69.30
2022-10-03T22:00:12.433Z,69.30
2022-10-03T22:02:18.774Z,69.30
2022-10-03T22:04:23.832Z,69.20
2022-10-03T22:06:27.165Z,69.30
2022-10-03T22:08:28.759Z,69.40
2022-10-03T22:10:36.099Z,69.40
2022-10-03T22:12:42.699Z,69.30
2022-10-03T22:14:58.456Z,69.30
2022-10-03T22:17:05.440Z,69.40
2022-10-03T22:19:12.956Z,69.40
2022-10-03T22:21:25.736Z,69.40
2022-10-03T22:23:41.170Z,69.50
2022-10-03T22:26:07.944Z,69.40
2022-10-03T22:28:18.163Z,69.50
2022-10-03T22:30:20.957Z,69.70
2022-10-03T22:32:27.098Z,69.50
2022-10-03T22:34:47.662Z,69.60
2022-10-03T22:36:49.639Z,69.60
2022-10-03T22:38:52.454Z,69.60
2022-10-03T22:40:55.676Z,69.60
2022-10-03T22:42:58.444Z,69.50
2022-10-03T22:45:02.552Z,69.40
2022-10-03T22:47:10.292Z,69.40
2022-10-03T22:49:16.503Z,69.60
2022-10-03T22:51:19.279Z,69.50
2022-10-03T22:53:23.516Z,69.50
2022-10-03T22:55:25.961Z,69.50
2022-10-03T22:57:27.811Z,69.40
2022-10-03T22:59:31.390Z,69.40
2022-10-03T23:01:34.228Z,69.40
2022-10-03T23:03:36.068Z,69.50
2022-10-03T23:05:46.886Z,69.60
2022-10-03T23:07:51.305Z,70.50
2022-10-03T23:10:05.300Z,69.70
2022-10-03T23:12:09.078Z,69.70
2022-10-03T23:14:14.675Z,69.70
2022-10-03T23:16:25.371Z,69.70
2022-10-03T23:18:27.882Z,69.70
2022-10-03T23:20:35.254Z,69.80
2022-10-03T23:22:37.754Z,69.80
2022-10-03T23:24:59.609Z,69.80
2022-10-03T23:27:19.960Z,69.60
2022-10-03T23:29:21.816Z,69.60
2022-10-03T23:31:42.724Z,69.60
2022-10-03T23:33:48.452Z,69.70
2022-10-03T23:35:50.545Z,69.70
2022-10-03T23:37:52.201Z,69.70
2022-10-03T23:39:54.450Z,69.70
2022-10-03T23:41:57.184Z,69.80
2022-10-03T23:43:58.815Z,69.80
2022-10-03T23:46:02.328Z,69.80
2022-10-03T23:48:10.103Z,69.80
2022-10-03T23:50:16.991Z,69.80
2022-10-03T23:52:23.021Z,69.80
2022-10-03T23:54:25.023Z,69.80
2022-10-03T23:56:29.317Z,69.80
2022-10-03T23:58:36.588Z,69.80
